Fort Smith Regional Airport (KFSM) Information & Weather

WARNING: the data listed below is for informational purposes only and should be confirmed from official sources. Data presented here on this page may be out of date, incomplete or wrong.

Name: Fort Smith Regional Airport
Identifier: KFSM

Coord: 35.3366N 94.3674W
Var: 2°E

Country: United States
Municipality: FT SMITH, AR
Time Zone: (GMT-06:00) America/Chicago

Station Elevation: 469 ft
Pressure Altitude: 596 ft
Density Altitude: 1076 ft
Freezing Level: 9055 ft

Civil Twilight
Morning: 12:46 UTC  (06:46 local)
Evening: 00:17 UTC  (18:17 local)

Flight Category: VFR (26 days ago)

METAR KFSM 312353Z 30010KT 10SM CLR 17/03 A2979 RMK AO2 SLP084 T01720028 10228 20172 53029= [toggle past 4 hours]

TAF KFSM 052325Z 0600/0624 06003KT P6SM BKN150 FM061700 25005KT P6SM SCT060=

Upper Winds

Source   Valid 375 1000 2000 2500 3000 5000 6000 8000 10000 12000 14000 16000 18000 21000 24000 26000 30000 34000 39000 44000 52000 60000
GFS 0600/0603 1905+09 2008+08 2108+06 2108+04 2207+02 2205-02 2607-06 2714-08 2720-11 2722-14 2629-16 2540-19 2548-23 2554-28 2560-35 2566-42 2579-48 2582-50 2589-51 2678-53 2650-58 2628-59

SIGMET/AIRMET

None within 25nm.

PIREP

None within 25nm.

NOTAM

None within 25nm.

Runway Data

Frequencies

Nearby Airports

Nearby Navaids